createdAt,value
2022-09-13T00:01:06.414Z,6.95
2022-09-13T00:03:35.117Z,7.22
2022-09-13T00:06:09.112Z,9.45
2022-09-13T00:08:37.501Z,9.02
2022-09-13T00:11:07.472Z,7.63
2022-09-13T00:13:35.722Z,7.07
2022-09-13T00:16:05.364Z,7.68
2022-09-13T00:18:33.800Z,9.38
2022-09-13T00:21:09.138Z,8.82
2022-09-13T00:23:37.573Z,8.88
2022-09-13T00:26:08.983Z,5.88
2022-09-13T00:28:37.620Z,7.25
2022-09-13T00:31:07.206Z,6.07
2022-09-13T00:33:35.547Z,8.57
2022-09-13T00:36:05.868Z,8.35
2022-09-13T00:38:34.406Z,7.32
2022-09-13T00:41:02.731Z,7.50
2022-09-13T00:43:44.547Z,8.82
2022-09-13T00:46:15.542Z,10.32
2022-09-13T00:48:44.038Z,8.23
2022-09-13T00:51:13.015Z,10.10
2022-09-13T00:53:42.816Z,8.98
2022-09-13T00:56:13.723Z,7.38
2022-09-13T00:58:44.448Z,6.90
2022-09-13T01:01:16.607Z,9.77
2022-09-13T01:03:45.518Z,7.30
2022-09-13T01:06:15.550Z,8.77
2022-09-13T01:08:45.161Z,7.85
2022-09-13T01:11:16.780Z,7.63
2022-09-13T01:13:45.141Z,7.47
2022-09-13T01:16:15.008Z,8.57
2022-09-13T01:18:43.273Z,10.27
2022-09-13T01:21:32.442Z,7.45
2022-09-13T01:24:21.571Z,9.95
2022-09-13T01:27:03.374Z,8.55
2022-09-13T01:29:42.110Z,6.53
2022-09-13T01:32:17.047Z,7.72
2022-09-13T01:34:52.007Z,6.90
2022-09-13T01:37:29.860Z,9.25
2022-09-13T01:40:04.703Z,7.95
2022-09-13T01:42:38.871Z,8.55
2022-09-13T01:45:12.664Z,12.00
2022-09-13T01:47:45.680Z,9.52
2022-09-13T01:50:18.845Z,10.23
2022-09-13T01:52:51.259Z,11.65
2022-09-13T01:55:24.500Z,10.75
2022-09-13T01:57:55.559Z,7.45
2022-09-13T02:00:23.900Z,9.00
2022-09-13T02:02:56.002Z,7.40
2022-09-13T02:05:28.032Z,9.65
2022-09-13T02:07:59.603Z,7.55
2022-09-13T02:10:29.912Z,8.90
2022-09-13T02:12:59.086Z,8.32
2022-09-13T02:15:28.627Z,11.60
2022-09-13T02:18:02.472Z,11.60
2022-09-13T02:20:33.375Z,10.27
2022-09-13T02:23:04.126Z,9.75
2022-09-13T02:25:33.286Z,9.32
2022-09-13T02:28:02.712Z,9.70
2022-09-13T02:30:33.871Z,10.82
2022-09-13T02:33:07.132Z,8.55
2022-09-13T02:35:38.104Z,8.95
2022-09-13T02:38:07.408Z,9.80
2022-09-13T02:40:40.187Z,10.50
2022-09-13T02:43:10.596Z,10.23
2022-09-13T02:45:44.148Z,13.80
2022-09-13T02:48:18.292Z,8.68
2022-09-13T02:50:51.112Z,11.02
2022-09-13T02:53:25.587Z,10.57
2022-09-13T02:55:56.023Z,10.60
2022-09-13T02:58:27.541Z,9.95
2022-09-13T03:00:56.303Z,7.20
2022-09-13T03:03:26.461Z,9.38
2022-09-13T03:05:55.072Z,8.32
2022-09-13T03:08:23.998Z,8.70
2022-09-13T03:10:59.106Z,9.88
2022-09-13T03:13:37.662Z,10.30
2022-09-13T03:16:10.951Z,7.93
2022-09-13T03:18:46.726Z,8.15
2022-09-13T03:21:21.749Z,11.63
2022-09-13T03:23:57.576Z,8.25
2022-09-13T03:26:29.988Z,9.75
2022-09-13T03:29:08.070Z,7.85
2022-09-13T03:31:38.822Z,9.77
2022-09-13T03:34:12.386Z,10.73
2022-09-13T03:36:44.632Z,8.75
2022-09-13T03:39:15.398Z,9.30
2022-09-13T03:41:45.229Z,11.90
2022-09-13T03:44:15.759Z,7.72
2022-09-13T03:46:45.778Z,11.73
2022-09-13T03:49:16.724Z,9.23
2022-09-13T03:51:45.824Z,10.95
2022-09-13T03:54:24.098Z,10.50
2022-09-13T03:57:08.555Z,8.75
2022-09-13T03:59:38.742Z,10.73
2022-09-13T04:02:12.138Z,11.45
2022-09-13T04:04:42.654Z,11.32
2022-09-13T04:07:11.610Z,10.77
2022-09-13T04:09:40.420Z,10.40
2022-09-13T04:12:10.125Z,9.52
2022-09-13T04:14:38.915Z,9.40
2022-09-13T04:17:07.471Z,10.23
2022-09-13T04:19:36.082Z,8.20
2022-09-13T04:22:05.968Z,9.90
2022-09-13T04:24:34.209Z,12.02
2022-09-13T04:27:03.133Z,9.88
2022-09-13T04:29:31.871Z,13.10
2022-09-13T04:32:00.532Z,11.88
2022-09-13T04:34:29.091Z,13.68
2022-09-13T04:36:57.573Z,10.45
2022-09-13T04:39:27.266Z,11.23
2022-09-13T04:41:55.609Z,10.93
2022-09-13T04:44:24.496Z,15.93
2022-09-13T04:46:53.173Z,10.93
2022-09-13T04:49:22.076Z,11.38
2022-09-13T04:51:50.946Z,14.23
2022-09-13T04:54:19.696Z,12.10
2022-09-13T04:56:49.586Z,16.40
2022-09-13T04:59:17.961Z,13.27
2022-09-13T05:01:46.426Z,14.23
2022-09-13T05:04:14.770Z,13.27
2022-09-13T05:06:42.979Z,14.00
2022-09-13T05:09:13.560Z,13.35
2022-09-13T05:11:42.319Z,14.25
2022-09-13T05:14:12.966Z,13.75
2022-09-13T05:16:41.309Z,12.43
2022-09-13T05:19:09.857Z,14.32
2022-09-13T05:21:38.061Z,16.60
2022-09-13T05:24:06.586Z,15.50
2022-09-13T05:26:34.850Z,12.10
2022-09-13T05:29:03.648Z,17.10
2022-09-13T05:31:34.266Z,14.52
2022-09-13T05:34:03.979Z,15.30
2022-09-13T05:36:32.423Z,13.98
2022-09-13T05:39:26.364Z,15.77
2022-09-13T05:41:50.381Z,12.93
2022-09-13T05:44:18.664Z,14.23
2022-09-13T05:46:49.914Z,16.00
2022-09-13T05:49:18.216Z,18.65
2022-09-13T05:51:46.490Z,12.95
2022-09-13T05:54:15.021Z,14.95
2022-09-13T05:56:43.288Z,14.50
2022-09-13T05:59:14.602Z,15.57
2022-09-13T06:01:42.998Z,14.95
2022-09-13T06:04:13.039Z,20.48
2022-09-13T06:06:41.374Z,12.50
2022-09-13T06:09:09.749Z,16.33
2022-09-13T06:11:38.131Z,11.52
2022-09-13T06:14:06.657Z,13.25
2022-09-13T06:16:35.014Z,13.38
2022-09-13T06:19:03.415Z,9.52
2022-09-13T06:21:32.986Z,10.55
2022-09-13T06:24:01.215Z,10.10
2022-09-13T06:26:30.068Z,10.02
2022-09-13T06:28:59.432Z,8.38
2022-09-13T06:31:28.807Z,7.38
2022-09-13T06:33:58.514Z,10.40
2022-09-13T06:36:26.895Z,5.45
2022-09-13T06:38:57.085Z,10.57
2022-09-13T06:41:27.412Z,7.15
2022-09-13T06:43:56.341Z,5.03
2022-09-13T06:46:25.481Z,6.97
2022-09-13T06:48:54.258Z,3.75
2022-09-13T06:51:24.160Z,3.55
2022-09-13T06:53:52.967Z,3.58
2022-09-13T06:56:23.861Z,5.05
2022-09-13T06:58:52.928Z,1.80
2022-09-13T07:01:22.426Z,2.55
2022-09-13T07:03:51.708Z,3.85
2022-09-13T07:06:22.576Z,5.95
2022-09-13T07:08:52.003Z,5.20
2022-09-13T07:11:21.581Z,4.45
2022-09-13T07:13:51.694Z,3.30
2022-09-13T07:16:20.679Z,3.67
2022-09-13T07:18:53.479Z,4.95
2022-09-13T07:21:22.226Z,7.30
2022-09-13T07:23:50.948Z,6.45
2022-09-13T07:26:19.302Z,3.63
2022-09-13T07:28:48.724Z,5.28
2022-09-13T07:31:20.651Z,5.13
2022-09-13T07:33:49.877Z,4.80
2022-09-13T07:36:18.224Z,7.82
2022-09-13T07:38:46.572Z,3.22
2022-09-13T07:41:15.706Z,4.25
2022-09-13T07:43:44.190Z,4.72
2022-09-13T07:46:13.341Z,3.80
2022-09-13T07:48:44.237Z,5.45
2022-09-13T07:51:13.756Z,4.88
2022-09-13T07:53:42.721Z,4.45
2022-09-13T07:56:11.669Z,4.88
2022-09-13T07:58:40.680Z,5.78
2022-09-13T08:01:09.907Z,5.50
2022-09-13T08:03:38.888Z,2.80
2022-09-13T08:06:09.346Z,5.72
2022-09-13T08:08:38.594Z,3.88
2022-09-13T08:11:07.921Z,3.25
2022-09-13T08:13:36.461Z,3.08
2022-09-13T08:16:05.636Z,2.80
2022-09-13T08:18:34.374Z,4.50
2022-09-13T08:21:03.060Z,3.55
2022-09-13T08:23:34.113Z,5.32
2022-09-13T08:26:03.726Z,2.85
2022-09-13T08:28:33.756Z,3.05
2022-09-13T08:31:06.134Z,5.75
2022-09-13T08:33:34.502Z,1.50
2022-09-13T08:36:02.952Z,2.97
2022-09-13T08:38:32.878Z,3.30
2022-09-13T08:41:03.420Z,5.97
2022-09-13T08:43:36.913Z,2.58
2022-09-13T08:46:07.720Z,3.75
2022-09-13T08:48:37.563Z,3.03
2022-09-13T08:51:07.931Z,2.03
2022-09-13T08:53:43.675Z,3.28
2022-09-13T08:56:13.430Z,3.15
2022-09-13T08:58:47.189Z,3.17
2022-09-13T09:01:20.290Z,4.10
2022-09-13T09:03:52.969Z,3.47
2022-09-13T09:06:22.713Z,1.67
2022-09-13T09:08:54.100Z,1.15
2022-09-13T09:11:28.352Z,2.65
2022-09-13T09:13:58.711Z,4.25
2022-09-13T09:16:32.535Z,1.75
2022-09-13T09:19:01.703Z,3.40
2022-09-13T09:21:30.958Z,3.80
2022-09-13T09:24:02.548Z,4.25
2022-09-13T09:26:32.088Z,4.68
2022-09-13T09:29:01.896Z,4.18
2022-09-13T09:31:35.773Z,3.30
2022-09-13T09:34:09.939Z,3.33
2022-09-13T09:36:42.145Z,3.60
2022-09-13T09:39:14.214Z,3.78
2022-09-13T09:41:43.075Z,3.30
2022-09-13T09:44:18.353Z,4.35
2022-09-13T09:46:48.989Z,3.90
2022-09-13T09:49:35.925Z,2.30
2022-09-13T09:52:07.364Z,4.50
2022-09-13T09:54:38.029Z,3.40
2022-09-13T09:57:08.123Z,4.45
2022-09-13T09:59:37.136Z,2.58
2022-09-13T10:02:19.195Z,4.45
2022-09-13T10:04:56.257Z,10.20
2022-09-13T10:07:27.272Z,3.42
2022-09-13T10:10:00.093Z,3.67
2022-09-13T10:12:29.183Z,4.68
2022-09-13T10:15:05.416Z,10.55
2022-09-13T10:17:33.904Z,5.38
2022-09-13T10:20:03.914Z,2.95
2022-09-13T10:22:32.801Z,11.18
2022-09-13T10:25:16.893Z,4.13
2022-09-13T10:27:49.789Z,3.92
2022-09-13T10:30:31.757Z,4.78
2022-09-13T10:33:00.690Z,6.45
2022-09-13T10:35:29.302Z,6.90
2022-09-13T10:37:57.698Z,4.30
2022-09-13T10:40:29.117Z,2.80
2022-09-13T10:42:58.829Z,4.53
2022-09-13T10:45:28.200Z,5.40
2022-09-13T10:47:57.596Z,2.90
2022-09-13T10:50:27.504Z,5.07
2022-09-13T10:52:56.403Z,3.58
2022-09-13T10:55:31.225Z,3.53
2022-09-13T10:58:14.632Z,1.90
2022-09-13T11:00:48.035Z,4.80
2022-09-13T11:03:25.330Z,5.38
2022-09-13T11:05:59.397Z,5.35
2022-09-13T11:08:31.157Z,3.03
2022-09-13T11:11:10.578Z,4.50
2022-09-13T11:13:46.397Z,4.57
2022-09-13T11:16:22.704Z,3.83
2022-09-13T11:19:01.164Z,3.45
2022-09-13T11:21:38.043Z,2.80
2022-09-13T11:24:12.430Z,1.88
2022-09-13T11:26:46.270Z,7.68
2022-09-13T11:29:21.030Z,3.95
2022-09-13T11:31:52.650Z,1.90
2022-09-13T11:34:28.895Z,1.35
2022-09-13T11:37:04.821Z,3.05
2022-09-13T11:39:33.670Z,2.20
2022-09-13T11:42:11.420Z,1.98
2022-09-13T11:44:54.495Z,4.50
2022-09-13T11:47:28.302Z,5.32
2022-09-13T11:50:15.033Z,4.50
2022-09-13T11:52:49.147Z,3.67
2022-09-13T11:55:18.808Z,3.60
2022-09-13T11:57:51.777Z,11.48
2022-09-13T12:00:23.750Z,5.45
2022-09-13T12:02:58.204Z,1.17
2022-09-13T12:05:28.476Z,3.63
2022-09-13T12:07:58.824Z,2.42
2022-09-13T12:10:29.151Z,4.10
2022-09-13T12:13:01.647Z,3.83
2022-09-13T12:15:34.492Z,5.07
2022-09-13T12:18:06.092Z,3.85
2022-09-13T12:20:35.937Z,3.20
2022-09-13T12:23:06.518Z,3.75
2022-09-13T12:25:38.993Z,2.75
2022-09-13T12:28:13.408Z,2.28
2022-09-13T12:30:44.315Z,3.78
2022-09-13T12:33:15.298Z,3.67
2022-09-13T12:35:52.801Z,1.42
2022-09-13T12:38:35.153Z,4.30
2022-09-13T12:41:12.076Z,4.07
2022-09-13T12:43:49.221Z,4.35
2022-09-13T12:46:25.193Z,4.10
2022-09-13T12:49:06.227Z,3.80
2022-09-13T12:51:41.003Z,2.80
2022-09-13T12:54:21.382Z,3.22
2022-09-13T12:56:57.180Z,7.53
2022-09-13T12:59:40.244Z,4.97
2022-09-13T13:02:28.623Z,4.78
2022-09-13T13:05:00.257Z,3.70
2022-09-13T13:07:28.849Z,7.25
2022-09-13T13:09:58.014Z,5.40
2022-09-13T13:12:28.855Z,3.28
2022-09-13T13:14:58.896Z,5.25
2022-09-13T13:17:47.187Z,5.47
2022-09-13T13:20:34.144Z,1.85
2022-09-13T13:23:05.638Z,3.35
2022-09-13T13:25:37.704Z,1.02
2022-09-13T13:28:06.338Z,6.40
2022-09-13T13:30:52.785Z,3.63
2022-09-13T13:33:22.682Z,7.72
2022-09-13T13:35:51.233Z,5.43
2022-09-13T13:38:35.281Z,5.43
2022-09-13T13:41:30.478Z,6.05
2022-09-13T13:43:58.837Z,3.80
2022-09-13T13:46:31.047Z,5.05
2022-09-13T13:49:23.310Z,3.20
2022-09-13T13:52:22.501Z,3.75
2022-09-13T13:55:02.792Z,4.55
2022-09-13T13:57:33.067Z,4.82
2022-09-13T14:00:07.995Z,2.92
2022-09-13T14:02:43.221Z,3.85
2022-09-13T14:05:18.062Z,1.23
2022-09-13T14:08:04.254Z,3.55
2022-09-13T14:13:21.524Z,4.60
2022-09-13T14:15:52.802Z,4.32
2022-09-13T14:18:51.706Z,3.88
2022-09-13T14:21:22.652Z,2.35
2022-09-13T14:23:51.466Z,3.97
2022-09-13T14:26:19.990Z,2.05
2022-09-13T14:28:48.339Z,3.65
2022-09-13T14:31:21.201Z,3.58
2022-09-13T14:33:49.829Z,2.47
2022-09-13T14:36:21.091Z,4.20
2022-09-13T14:38:55.224Z,4.28
2022-09-13T14:41:31.044Z,3.45
2022-09-13T14:44:22.484Z,4.75
2022-09-13T14:46:55.654Z,3.42
2022-09-13T14:49:26.869Z,2.72
2022-09-13T14:51:57.738Z,3.33
2022-09-13T14:54:32.063Z,4.60
2022-09-13T14:57:01.538Z,4.72
2022-09-13T14:59:32.393Z,6.38
2022-09-13T15:02:03.038Z,3.70
2022-09-13T15:04:31.681Z,6.72
2022-09-13T15:07:11.157Z,1.90
2022-09-13T15:09:41.099Z,2.95
2022-09-13T15:12:22.616Z,5.05
2022-09-13T15:14:51.207Z,4.50
2022-09-13T15:17:19.552Z,6.72
2022-09-13T15:19:50.383Z,1.83
2022-09-13T15:22:23.592Z,4.78
2022-09-13T15:24:54.566Z,3.25
2022-09-13T15:27:27.898Z,2.67
2022-09-13T15:29:57.648Z,4.63
2022-09-13T15:32:31.144Z,5.28
2022-09-13T15:35:00.441Z,4.10
2022-09-13T15:37:33.499Z,2.70
2022-09-13T15:40:19.768Z,4.38
2022-09-13T15:42:50.226Z,2.85
2022-09-13T15:45:19.684Z,3.90
2022-09-13T15:47:48.914Z,5.07
2022-09-13T15:50:21.594Z,2.97
2022-09-13T15:52:49.854Z,3.25
2022-09-13T15:55:18.928Z,7.40
2022-09-13T15:57:47.460Z,4.60
2022-09-13T16:00:22.065Z,3.72
2022-09-13T16:02:50.465Z,3.15
2022-09-13T16:05:18.946Z,2.92
2022-09-13T16:07:47.329Z,3.45
2022-09-13T16:10:16.660Z,3.85
2022-09-13T16:12:44.977Z,5.15
2022-09-13T16:15:14.318Z,2.83
2022-09-13T16:17:44.053Z,3.60
2022-09-13T16:20:13.646Z,1.88
2022-09-13T16:22:42.230Z,3.40
2022-09-13T16:25:12.913Z,2.90
2022-09-13T16:27:41.429Z,5.95
2022-09-13T16:30:12.172Z,4.13
2022-09-13T16:32:41.260Z,2.78
2022-09-13T16:35:11.603Z,4.00
2022-09-13T16:37:41.167Z,3.58
2022-09-13T16:40:10.103Z,5.32
2022-09-13T16:42:39.150Z,7.22
2022-09-13T16:45:07.877Z,4.38
2022-09-13T16:47:36.133Z,4.35
2022-09-13T16:50:04.457Z,6.70
2022-09-13T16:52:35.455Z,2.35
2022-09-13T16:55:04.171Z,7.25
2022-09-13T16:57:32.702Z,6.90
2022-09-13T17:00:00.877Z,5.47
2022-09-13T17:02:29.530Z,8.63
2022-09-13T17:04:57.891Z,6.20
2022-09-13T17:07:26.167Z,5.75
2022-09-13T17:09:55.764Z,6.47
2022-09-13T17:12:24.051Z,4.45
2022-09-13T17:14:52.983Z,3.17
2022-09-13T17:17:21.196Z,2.28
2022-09-13T17:19:50.029Z,4.88
2022-09-13T17:22:18.210Z,6.72
2022-09-13T17:24:46.522Z,2.78
2022-09-13T17:27:16.201Z,3.97
2022-09-13T17:29:44.370Z,6.35
2022-09-13T17:32:12.596Z,4.88
2022-09-13T17:34:41.218Z,6.72
2022-09-13T17:37:09.571Z,6.93
2022-09-13T17:39:37.731Z,7.93
2022-09-13T17:42:06.335Z,5.23
2022-09-13T17:44:36.352Z,5.60
2022-09-13T17:47:06.294Z,5.38
2022-09-13T17:49:34.579Z,5.05
2022-09-13T17:52:03.439Z,6.40
2022-09-13T17:54:31.836Z,3.55
2022-09-13T17:57:00.286Z,3.28
2022-09-13T17:59:29.037Z,6.45
2022-09-13T18:02:00.612Z,5.70
2022-09-13T18:04:29.026Z,4.60
2022-09-13T18:06:57.310Z,6.10
2022-09-13T18:09:26.420Z,8.40
2022-09-13T18:11:54.879Z,6.53
2022-09-13T18:14:23.886Z,9.25
2022-09-13T18:16:55.838Z,9.32
2022-09-13T18:19:44.935Z,6.03
2022-09-13T18:22:14.054Z,8.90
2022-09-13T18:24:42.322Z,6.15
2022-09-13T18:27:10.736Z,4.75
2022-09-13T18:29:39.091Z,9.82
2022-09-13T18:32:07.686Z,8.60
2022-09-13T18:34:37.355Z,4.22
2022-09-13T18:37:05.827Z,5.68
2022-09-13T18:39:34.241Z,9.98
2022-09-13T18:42:02.585Z,7.70
2022-09-13T18:44:31.709Z,10.98
2022-09-13T18:47:00.619Z,5.97
2022-09-13T18:49:28.920Z,10.85
2022-09-13T18:51:59.492Z,5.93
2022-09-13T18:54:28.269Z,8.27
2022-09-13T18:56:57.503Z,4.82
2022-09-13T18:59:26.670Z,7.03
2022-09-13T19:01:56.010Z,5.57
2022-09-13T19:04:27.277Z,8.68
2022-09-13T19:06:57.098Z,7.28
2022-09-13T19:09:26.974Z,9.15
2022-09-13T19:11:56.401Z,7.18
2022-09-13T19:14:27.303Z,9.93
2022-09-13T19:16:57.335Z,6.05
2022-09-13T19:19:26.079Z,6.72
2022-09-13T19:21:54.491Z,5.90
2022-09-13T19:24:24.376Z,6.53
2022-09-13T19:26:55.715Z,7.57
2022-09-13T19:29:25.062Z,5.70
2022-09-13T19:31:55.823Z,4.18
2022-09-13T19:34:24.580Z,7.13
2022-09-13T19:36:58.054Z,6.28
2022-09-13T19:39:29.697Z,9.30
2022-09-13T19:42:00.710Z,12.77
2022-09-13T19:44:29.300Z,7.53
2022-09-13T19:47:36.132Z,6.25
2022-09-13T19:49:46.168Z,6.70
2022-09-13T19:52:14.443Z,7.88
2022-09-13T19:54:42.952Z,5.03
2022-09-13T19:57:12.879Z,8.65
2022-09-13T19:59:41.233Z,7.40
2022-09-13T20:02:11.067Z,6.63
2022-09-13T20:04:39.495Z,10.98
2022-09-13T20:07:12.258Z,5.80
2022-09-13T20:09:42.242Z,6.10
2022-09-13T20:12:11.597Z,7.50
2022-09-13T20:14:41.427Z,9.40
2022-09-13T20:17:09.799Z,5.50
2022-09-13T20:19:45.063Z,7.28
2022-09-13T20:22:16.375Z,8.10
2022-09-13T20:24:44.646Z,9.25
2022-09-13T20:27:13.412Z,5.50
2022-09-13T20:29:43.307Z,4.43
2022-09-13T20:32:12.060Z,8.18
2022-09-13T20:34:40.332Z,5.70
2022-09-13T20:37:08.593Z,6.18
2022-09-13T20:39:36.866Z,7.35
2022-09-13T20:42:05.310Z,5.82
2022-09-13T20:44:33.608Z,5.70
2022-09-13T20:47:03.587Z,6.35
2022-09-13T20:49:31.920Z,3.40
2022-09-13T20:52:00.397Z,6.00
2022-09-13T20:54:28.858Z,7.15
2022-09-13T20:56:58.135Z,9.10
2022-09-13T20:59:27.004Z,6.07
2022-09-13T21:01:55.346Z,4.57
2022-09-13T21:04:25.457Z,6.15
2022-09-13T21:07:14.689Z,5.10
2022-09-13T21:09:43.380Z,7.28
2022-09-13T21:12:11.642Z,9.45
2022-09-13T21:14:40.067Z,4.63
2022-09-13T21:17:08.799Z,8.27
2022-09-13T21:19:38.597Z,5.85
2022-09-13T21:22:06.963Z,5.88
2022-09-13T21:24:35.245Z,21.27
2022-09-13T21:27:03.882Z,4.22
2022-09-13T21:29:32.296Z,9.48
2022-09-13T21:32:00.825Z,7.93
2022-09-13T21:34:29.713Z,7.72
2022-09-13T21:36:59.543Z,4.90
2022-09-13T21:39:29.899Z,7.80
2022-09-13T21:41:58.352Z,2.05
2022-09-13T21:44:28.272Z,5.72
2022-09-13T21:46:56.633Z,6.68
2022-09-13T21:49:25.091Z,5.38
2022-09-13T21:51:54.270Z,7.40
2022-09-13T21:54:24.029Z,5.30
2022-09-13T21:56:53.834Z,7.03
2022-09-13T21:59:23.177Z,8.77
2022-09-13T22:01:52.572Z,4.45
2022-09-13T22:04:22.298Z,7.55
2022-09-13T22:06:52.217Z,7.38
2022-09-13T22:09:21.003Z,6.82
2022-09-13T22:11:51.080Z,8.50
2022-09-13T22:14:21.685Z,10.25
2022-09-13T22:16:50.811Z,5.97
2022-09-13T22:19:20.439Z,5.95
2022-09-13T22:21:50.470Z,8.27
2022-09-13T22:24:19.776Z,4.65
2022-09-13T22:26:49.231Z,7.30
2022-09-13T22:29:18.967Z,4.60
2022-09-13T22:31:48.381Z,7.22
2022-09-13T22:34:17.547Z,5.15
2022-09-13T22:36:46.032Z,4.18
2022-09-13T22:39:15.461Z,4.60
2022-09-13T22:41:44.170Z,4.40
2022-09-13T22:44:12.796Z,10.13
2022-09-13T22:46:43.150Z,8.43
2022-09-13T22:49:13.879Z,5.93
2022-09-13T22:51:42.167Z,3.78
2022-09-13T22:54:10.736Z,3.67
2022-09-13T22:56:39.328Z,3.28
2022-09-13T22:59:08.744Z,4.45
2022-09-13T23:01:38.122Z,4.05
2022-09-13T23:04:08.362Z,2.83
2022-09-13T23:06:37.051Z,5.28
2022-09-13T23:09:06.752Z,7.05
2022-09-13T23:11:36.173Z,5.25
2022-09-13T23:14:05.978Z,6.70
2022-09-13T23:16:36.571Z,4.57
2022-09-13T23:19:05.206Z,2.95
2022-09-13T23:21:35.865Z,4.70
2022-09-13T23:24:05.268Z,6.55
2022-09-13T23:26:33.535Z,3.17
2022-09-13T23:29:02.768Z,4.32
2022-09-13T23:31:31.935Z,5.93
2022-09-13T23:34:01.636Z,7.35
2022-09-13T23:36:31.661Z,10.65
2022-09-13T23:39:03.062Z,4.78
2022-09-13T23:41:31.904Z,5.85
2022-09-13T23:44:00.572Z,3.97
2022-09-13T23:46:29.361Z,4.95
2022-09-13T23:48:57.650Z,4.78
2022-09-13T23:51:27.219Z,6.00
2022-09-13T23:53:57.382Z,6.32
2022-09-13T23:56:27.669Z,2.17
2022-09-13T23:58:56.973Z,4.78
